Time;durP1;ratioP1;P1;durP2;ratioP2;P2;SDS_P1;SDS_P2;PMS_P1;PMS_P2;Temp;Humidity;BMP_temperature;BMP_pressure;BME280_temperature;BME280_humidity;BME280_pressure;Samples;Min_cycle;Max_cycle;Signal;HPM_P1;HPM_P2
2022/01/01 00:01:53;;;;;;;13.02;11.73;;;21.50;58.20;;;;;;4999302;28;95686;-57
2022/01/01 00:04:24;;;;;;;13.27;11.40;;;21.60;58.00;;;;;;4989443;28;95919;-58
2022/01/01 00:06:56;;;;;;;12.65;11.35;;;21.60;57.90;;;;;;4989018;28;96418;-59
2022/01/01 00:09:26;;;;;;;;;;;21.60;58.30;;;;;;4992929;28;96030;-59
2022/01/01 00:11:57;;;;;;;12.18;11.07;;;21.60;57.40;;;;;;5001592;28;95373;-59
2022/01/01 00:14:32;;;;;;;11.73;10.02;;;21.60;57.40;;;;;;5009394;28;95728;-59
2022/01/01 00:17:05;;;;;;;11.65;10.55;;;21.70;57.20;;;;;;4986625;28;96089;-59
2022/01/01 00:19:36;;;;;;;10.00;9.07;;;21.70;57.10;;;;;;4988273;28;96019;-59
2022/01/01 00:22:09;;;;;;;11.65;10.52;;;21.70;56.90;;;;;;5001045;28;95965;-62
2022/01/01 00:24:40;;;;;;;10.73;9.35;;;21.70;56.70;;;;;;5000891;28;96165;-60
2022/01/01 00:27:12;;;;;;;9.27;8.38;;;21.70;56.50;;;;;;5005504;28;96554;-62
2022/01/01 00:29:42;;;;;;;;;;;21.80;53.80;;;;;;4998422;28;96056;-62
2022/01/01 00:32:12;;;;;;;8.98;8.18;;;21.80;56.30;;;;;;4999605;28;95969;-60
2022/01/01 00:34:42;;;;;;;10.57;8.30;;;21.80;56.10;;;;;;5003138;28;95740;-59
2022/01/01 00:37:15;;;;;;;8.98;8.02;;;21.80;53.20;;;;;;4987677;28;96530;-60
2022/01/01 00:39:46;;;;;;;8.15;7.15;;;21.80;55.80;;;;;;5007894;28;96248;-59
2022/01/01 00:42:16;;;;;;;8.98;8.10;;;21.90;55.60;;;;;;5008034;28;95834;-62
2022/01/01 00:44:46;;;;;;;9.20;8.40;;;21.90;55.50;;;;;;5009631;28;95731;-62
2022/01/01 00:47:21;;;;;;;8.73;7.10;;;21.90;55.40;;;;;;4983858;28;97790;-62
2022/01/01 00:49:52;;;;;;;7.20;6.55;;;21.90;55.10;;;;;;5005154;28;95772;-62
2022/01/01 00:52:23;;;;;;;5.88;5.38;;;21.90;54.90;;;;;;5005221;28;95871;-59
2022/01/01 00:54:54;;;;;;;6.75;6.15;;;22.00;54.80;;;;;;5002862;28;96676;-61
2022/01/01 00:57:25;;;;;;;6.22;5.72;;;22.00;54.70;;;;;;5008751;28;96494;-62
2022/01/01 00:59:57;;;;;;;5.28;4.78;;;22.00;54.60;;;;;;5005121;28;96750;-60
2022/01/01 01:02:28;;;;;;;6.60;5.75;;;22.10;54.50;;;;;;4998936;28;95769;-62
2022/01/01 01:05:02;;;;;;;5.50;4.70;;;22.10;54.40;;;;;;4980955;28;98404;-59
2022/01/01 01:07:36;;;;;;;5.22;4.47;;;22.10;54.10;;;;;;4998889;28;97507;-61
2022/01/01 01:10:09;;;;;;;6.32;4.50;;;22.20;53.90;;;;;;5016556;28;95884;-57
2022/01/01 01:12:47;;;;;;;5.28;4.78;;;22.20;53.50;;;;;;5001505;28;95823;-58
2022/01/01 01:15:19;;;;;;;5.18;3.90;;;22.30;53.40;;;;;;5002917;28;95929;-59
2022/01/01 01:17:52;;;;;;;4.05;3.40;;;22.30;53.20;;;;;;4996340;28;96379;-59
2022/01/01 01:20:23;;;;;;;3.97;3.65;;;22.40;53.10;;;;;;5003248;28;96204;-60
2022/01/01 01:22:54;;;;;;;4.32;3.92;;;22.50;53.00;;;;;;5006060;28;95720;-61
2022/01/01 01:25:29;;;;;;;4.13;3.72;;;22.60;52.70;;;;;;5003995;28;96185;-58
2022/01/01 01:28:07;;;;;;;4.05;3.65;;;22.60;52.50;;;;;;4990455;28;96671;-60
2022/01/01 01:30:39;;;;;;;3.55;3.25;;;22.60;52.40;;;;;;4982971;28;95614;-59
2022/01/01 01:33:11;;;;;;;4.10;3.13;;;22.60;52.30;;;;;;5003033;28;95979;-59
2022/01/01 01:35:42;;;;;;;4.10;3.00;;;22.70;52.10;;;;;;4995299;28;95892;-58
2022/01/01 01:38:14;;;;;;;2.83;2.50;;;22.80;52.40;;;;;;4994087;28;96784;-60
2022/01/01 01:40:46;;;;;;;3.78;2.67;;;22.80;52.20;;;;;;4997898;28;95776;-59
2022/01/01 01:43:16;;;;;;;2.63;2.42;;;22.90;52.30;;;;;;4995444;28;95927;-61
2022/01/01 01:45:48;;;;;;;3.08;2.80;;;23.00;52.20;;;;;;4996230;28;95440;-59
2022/01/01 01:48:18;;;;;;;3.55;2.72;;;23.10;52.10;;;;;;5008017;28;96181;-62
2022/01/01 01:50:50;;;;;;;2.92;2.67;;;23.10;52.10;;;;;;5000652;28;96031;-60
2022/01/01 01:53:20;;;;;;;2.80;2.60;;;23.20;51.90;;;;;;5004469;28;95866;-61
2022/01/01 01:55:50;;;;;;;3.22;2.75;;;23.20;51.80;;;;;;5005557;28;95994;-61
2022/01/01 01:58:20;;;;;;;3.55;2.47;;;23.30;51.90;;;;;;5001496;28;95937;-61
2022/01/01 02:03:41;;;;;;;4.05;2.50;;;23.40;51.90;;;;;;5004885;28;95287;-58
2022/01/01 02:06:12;;;;;;;2.20;2.00;;;23.50;51.90;;;;;;4993957;28;96015;-59
2022/01/01 02:08:45;;;;;;;2.33;2.15;;;23.50;51.40;;;;;;4995962;28;96289;-58
2022/01/01 02:11:17;;;;;;;2.78;2.50;;;23.50;51.40;;;;;;4998656;28;95767;-58
2022/01/01 02:18:56;;;;;;;2.22;2.03;;;23.90;52.00;;;;;;4991091;28;99988;-61
2022/01/01 02:21:31;;;;;;;2.28;1.85;;;23.90;52.00;;;;;;5011053;27;97249;-59
2022/01/01 02:24:04;;;;;;;;;;;24.00;52.10;;;;;;5000767;28;95830;-61
2022/01/01 02:26:36;;;;;;;2.47;2.25;;;24.10;52.20;;;;;;5000425;28;95967;-60
2022/01/01 02:29:06;;;;;;;2.53;2.13;;;24.10;52.20;;;;;;4997243;28;96382;-63
2022/01/01 02:31:38;;;;;;;1.77;1.67;;;24.20;52.30;;;;;;4990495;28;96099;-61
2022/01/01 02:34:11;;;;;;;1.92;1.83;;;24.30;52.40;;;;;;4996923;28;96700;-58
2022/01/01 02:36:44;;;;;;;2.10;1.90;;;24.40;52.40;;;;;;4998269;28;96682;-59
2022/01/01 02:39:20;;;;;;;1.80;1.70;;;24.40;52.50;;;;;;4997941;28;95799;-60
2022/01/01 02:41:53;;;;;;;1.90;1.80;;;24.50;52.60;;;;;;4987171;28;95930;-60
2022/01/01 02:44:26;;;;;;;1.70;1.60;;;24.50;52.50;;;;;;4985770;28;95641;-58
2022/01/01 02:46:57;;;;;;;1.92;1.83;;;24.60;52.70;;;;;;4990503;28;96031;-58
2022/01/01 02:49:27;;;;;;;1.75;1.65;;;24.60;52.60;;;;;;4996868;28;96958;-59
2022/01/01 02:51:58;;;;;;;2.28;1.90;;;24.70;52.70;;;;;;4995594;28;96630;-57
2022/01/01 02:54:29;;;;;;;;;;;24.80;52.70;;;;;;4998151;28;95947;-55
2022/01/01 02:57:00;;;;;;;1.42;1.38;;;24.80;52.70;;;;;;4994379;28;95807;-57
2022/01/01 02:59:32;;;;;;;1.52;1.42;;;24.90;52.80;;;;;;4994515;28;96173;-60
2022/01/01 03:02:03;;;;;;;1.67;1.50;;;24.90;52.80;;;;;;4974715;28;95636;-60
2022/01/01 03:04:34;;;;;;;1.90;1.80;;;25.00;52.80;;;;;;4982037;28;96730;-59
2022/01/01 03:07:06;;;;;;;1.58;1.45;;;25.00;52.80;;;;;;4989153;28;96144;-58
2022/01/01 03:09:37;;;;;;;2.22;1.40;;;25.10;52.80;;;;;;4977473;28;97389;-60
2022/01/01 03:12:12;;;;;;;1.55;1.45;;;25.10;52.80;;;;;;4991401;28;96105;-59
2022/01/01 03:14:43;;;;;;;1.40;1.35;;;25.20;52.90;;;;;;4999039;28;95812;-58
2022/01/01 03:17:13;;;;;;;;;;;25.20;52.80;;;;;;4971067;28;95790;-57
2022/01/01 03:19:45;;;;;;;1.83;1.67;;;25.30;52.90;;;;;;4976105;28;98538;-60
2022/01/01 03:22:16;;;;;;;3.47;1.55;;;25.30;52.80;;;;;;4977956;28;95709;-57
2022/01/01 03:24:46;;;;;;;;;;;25.40;52.90;;;;;;4971785;28;95751;-59
2022/01/01 03:27:17;;;;;;;1.38;1.15;;;25.40;52.90;;;;;;4977891;28;95761;-60
2022/01/01 03:29:49;;;;;;;1.65;1.55;;;25.50;52.90;;;;;;4973500;28;96516;-59
2022/01/01 03:32:20;;;;;;;1.20;1.20;;;25.50;52.90;;;;;;4967668;28;95687;-60
2022/01/01 03:34:52;;;;;;;1.83;1.27;;;25.60;52.90;;;;;;4979085;28;96007;-63
2022/01/01 03:37:23;;;;;;;1.38;1.20;;;25.50;51.40;;;;;;4985057;28;96003;-58
2022/01/01 03:39:53;;;;;;;1.27;1.27;;;25.50;52.10;;;;;;4974292;28;96754;-58
2022/01/01 03:42:23;;;;;;;1.17;1.17;;;25.60;52.30;;;;;;4978476;28;98331;-59
2022/01/01 03:44:56;;;;;;;1.80;1.10;;;25.60;52.20;;;;;;4975294;28;95683;-61
2022/01/01 03:47:27;;;;;;;1.17;1.10;;;25.70;52.30;;;;;;4974136;28;95467;-57
2022/01/01 03:49:58;;;;;;;1.20;1.13;;;25.70;52.30;;;;;;4994280;28;98930;-58
2022/01/01 03:52:29;;;;;;;0.95;0.90;;;25.80;52.30;;;;;;4996095;28;96028;-61
2022/01/01 03:55:00;;;;;;;1.45;1.25;;;25.80;52.30;;;;;;4997834;28;95903;-62
2022/01/01 03:57:29;;;;;;;0.93;0.93;;;25.90;52.40;;;;;;4994072;28;96470;-59
2022/01/01 04:00:00;;;;;;;1.80;1.00;;;25.90;52.30;;;;;;4981172;28;97472;-59
2022/01/01 04:02:41;;;;;;;;;;;25.90;52.30;;;;;;4989120;28;96115;-58
2022/01/01 04:05:13;;;;;;;1.65;1.25;;;25.90;52.30;;;;;;4996890;28;95622;-60
2022/01/01 04:07:43;;;;;;;;;;;26.00;52.40;;;;;;5000181;28;95741;-60
2022/01/01 04:10:15;;;;;;;1.20;1.20;;;26.00;52.40;;;;;;5006438;28;96597;-60
2022/01/01 04:12:46;;;;;;;1.65;1.35;;;26.00;52.40;;;;;;4998907;28;95492;-61
2022/01/01 04:15:16;;;;;;;1.30;1.20;;;26.10;52.50;;;;;;4992082;28;95789;-61
2022/01/01 04:17:47;;;;;;;1.20;1.13;;;26.10;52.60;;;;;;4999772;28;95923;-61
2022/01/01 04:20:19;;;;;;;1.23;1.08;;;26.10;52.50;;;;;;4999873;28;96076;-57
2022/01/01 04:22:56;;;;;;;1.02;1.02;;;26.20;52.60;;;;;;5001876;28;95814;-60
2022/01/01 04:25:28;;;;;;;1.60;1.30;;;26.20;52.60;;;;;;5004200;28;95866;-59
2022/01/01 04:28:00;;;;;;;1.00;1.00;;;26.30;52.70;;;;;;5000214;28;96158;-59
2022/01/01 04:30:30;;;;;;;;;;;26.30;52.70;;;;;;4992193;28;97449;-61
2022/01/01 04:33:02;;;;;;;1.05;1.05;;;26.30;52.60;;;;;;5000813;28;101879;-59
2022/01/01 04:35:32;;;;;;;1.15;1.00;;;26.40;52.70;;;;;;5018218;28;95471;-59
2022/01/01 04:38:07;;;;;;;0.70;0.70;;;26.40;52.60;;;;;;4983741;28;96781;-58
2022/01/01 04:40:37;;;;;;;1.08;1.08;;;26.40;52.60;;;;;;4996872;28;96359;-60
2022/01/01 04:43:07;;;;;;;0.98;0.98;;;26.40;52.60;;;;;;4990117;28;95359;-59
2022/01/01 04:45:37;;;;;;;0.98;0.77;;;26.40;52.60;;;;;;4987660;28;97557;-61
2022/01/01 04:48:07;;;;;;;1.03;1.03;;;26.40;52.60;;;;;;4997420;28;95587;-59
2022/01/01 04:50:40;;;;;;;1.30;1.20;;;26.50;52.70;;;;;;4997175;28;97049;-61
2022/01/01 04:53:16;;;;;;;1.00;1.00;;;26.50;52.60;;;;;;4998011;28;95796;-63
2022/01/01 04:55:47;;;;;;;1.23;1.13;;;26.50;52.60;;;;;;4998909;28;95286;-58
2022/01/01 04:58:19;;;;;;;0.90;0.88;;;26.50;52.70;;;;;;4997327;28;95809;-61
2022/01/01 05:00:50;;;;;;;0.98;0.98;;;26.60;52.70;;;;;;4996313;28;96217;-63
2022/01/01 05:03:21;;;;;;;1.00;1.00;;;26.60;52.70;;;;;;4996146;28;96432;-59
2022/01/01 05:05:53;;;;;;;1.63;1.10;;;26.60;52.70;;;;;;4993567;28;95760;-58
2022/01/01 05:08:27;;;;;;;1.25;1.23;;;26.60;52.60;;;;;;4999927;28;95322;-60
2022/01/01 05:10:59;;;;;;;0.80;0.80;;;26.70;52.70;;;;;;4997663;28;96151;-58
2022/01/01 05:13:31;;;;;;;0.82;0.82;;;26.70;52.60;;;;;;4999639;28;95903;-59
2022/01/01 05:16:01;;;;;;;0.80;0.80;;;26.70;52.60;;;;;;4990352;28;95846;-60
2022/01/01 05:18:36;;;;;;;1.05;0.88;;;26.70;52.60;;;;;;4995815;28;95924;-61
2022/01/01 05:21:07;;;;;;;1.00;0.93;;;26.70;52.60;;;;;;4990406;28;96284;-61
2022/01/01 05:23:39;;;;;;;0.88;0.75;;;26.70;52.60;;;;;;4998401;28;95860;-60
2022/01/01 05:26:09;;;;;;;0.90;0.90;;;26.80;52.60;;;;;;4996337;28;95904;-60
2022/01/01 05:28:41;;;;;;;1.05;1.00;;;26.80;52.60;;;;;;5002075;28;95800;-57
2022/01/01 05:31:12;;;;;;;1.83;1.05;;;26.80;52.60;;;;;;4986345;27;96085;-60
2022/01/01 05:33:44;;;;;;;1.33;1.02;;;26.80;52.70;;;;;;5016631;28;97380;-59
2022/01/01 05:36:15;;;;;;;1.42;1.33;;;26.80;52.90;;;;;;5001364;28;96072;-59
2022/01/01 05:38:48;;;;;;;0.90;0.90;;;26.90;52.60;;;;;;5003393;28;95341;-60
2022/01/01 05:41:17;;;;;;;1.55;1.10;;;26.90;52.60;;;;;;5007338;28;96861;-61
2022/01/01 05:43:48;;;;;;;1.45;1.08;;;26.90;53.00;;;;;;5005177;28;95659;-61
2022/01/01 05:46:18;;;;;;;1.17;1.00;;;26.90;52.60;;;;;;5000142;28;98170;-60
2022/01/01 05:48:50;;;;;;;0.90;0.90;;;26.90;52.60;;;;;;5005391;28;95734;-59
2022/01/01 05:51:22;;;;;;;0.80;0.80;;;26.90;52.50;;;;;;5002992;28;96735;-59
2022/01/01 05:53:53;;;;;;;0.70;0.70;;;26.90;52.40;;;;;;5016663;28;97773;-59
2022/01/01 05:56:25;;;;;;;1.10;0.90;;;27.00;52.60;;;;;;5007947;28;95757;-61
2022/01/01 05:58:56;;;;;;;1.23;1.00;;;27.00;52.60;;;;;;5005457;28;96164;-60
2022/01/01 06:01:26;;;;;;;0.82;0.82;;;27.00;52.50;;;;;;4998813;28;96108;-59
2022/01/01 06:03:57;;;;;;;0.80;0.80;;;27.00;52.60;;;;;;5003961;28;95798;-60
2022/01/01 06:06:29;;;;;;;1.05;1.00;;;27.00;52.70;;;;;;5005256;28;96018;-60
2022/01/01 06:09:01;;;;;;;0.75;0.75;;;27.00;52.60;;;;;;5005053;28;96146;-59
2022/01/01 06:11:35;;;;;;;0.80;0.80;;;27.00;52.60;;;;;;5005907;28;95869;-60
2022/01/01 06:14:06;;;;;;;0.98;0.98;;;27.00;52.60;;;;;;5006328;28;95813;-61
2022/01/01 06:16:37;;;;;;;1.13;1.00;;;27.00;52.50;;;;;;4995860;28;95863;-58
2022/01/01 06:19:08;;;;;;;0.70;0.70;;;27.10;52.70;;;;;;4996242;28;95826;-59
2022/01/01 06:21:39;;;;;;;1.02;0.88;;;27.10;52.70;;;;;;5005319;28;96174;-57
2022/01/01 06:24:11;;;;;;;1.40;1.30;;;27.10;52.60;;;;;;5007710;28;95762;-61
2022/01/01 06:26:42;;;;;;;0.93;0.80;;;27.10;52.60;;;;;;5005920;28;95616;-59
2022/01/01 06:29:15;;;;;;;0.60;0.60;;;27.10;52.60;;;;;;5001685;28;96191;-59
2022/01/01 06:31:45;;;;;;;1.65;0.90;;;27.10;52.60;;;;;;4988536;28;98553;-61
2022/01/01 06:34:15;;;;;;;0.70;0.70;;;27.10;52.60;;;;;;4999691;28;96401;-63
2022/01/01 06:36:51;;;;;;;1.30;0.70;;;27.10;52.60;;;;;;5006756;28;95676;-61
2022/01/01 06:39:21;;;;;;;0.75;0.75;;;27.10;52.60;;;;;;4985057;28;95665;-58
2022/01/01 06:41:51;;;;;;;1.00;0.50;;;27.10;52.60;;;;;;4981367;28;96816;-60
2022/01/01 06:44:21;;;;;;;0.70;0.70;;;27.10;52.60;;;;;;5005933;28;95819;-59
2022/01/01 06:46:53;;;;;;;0.73;0.73;;;27.10;52.60;;;;;;4998727;28;95888;-59
2022/01/01 06:49:23;;;;;;;;;;;27.10;52.60;;;;;;4986435;28;95874;-60
2022/01/01 06:51:54;;;;;;;0.80;0.80;;;27.10;52.60;;;;;;5008778;28;96154;-61
2022/01/01 06:54:25;;;;;;;;;;;27.10;52.50;;;;;;5004707;28;95877;-60
2022/01/01 06:56:57;;;;;;;0.70;0.70;;;27.10;52.60;;;;;;5001831;28;95360;-59
2022/01/01 06:59:27;;;;;;;0.88;0.60;;;27.10;52.50;;;;;;4999643;28;95611;-58
2022/01/01 07:01:58;;;;;;;0.90;0.90;;;27.10;52.50;;;;;;5000834;28;96092;-60
2022/01/01 07:04:29;;;;;;;1.60;0.70;;;27.10;52.50;;;;;;4979401;28;97555;-59
2022/01/01 07:07:04;;;;;;;1.35;0.82;;;27.10;52.50;;;;;;5005223;28;95879;-58
2022/01/01 07:09:35;;;;;;;0.70;0.70;;;27.00;52.40;;;;;;5020051;28;97071;-59
2022/01/01 07:12:06;;;;;;;0.95;0.57;;;27.10;52.60;;;;;;5004136;28;96838;-60
2022/01/01 07:14:38;;;;;;;0.68;0.68;;;27.10;52.50;;;;;;5004497;28;96112;-59
2022/01/01 07:17:13;;;;;;;0.95;0.77;;;27.10;52.50;;;;;;4991837;28;95799;-59
2022/01/01 07:19:44;;;;;;;0.73;0.60;;;27.10;52.50;;;;;;5001230;28;95871;-60
2022/01/01 07:22:14;;;;;;;2.55;1.23;;;27.10;52.50;;;;;;5014827;28;99588;-60
2022/01/01 07:24:45;;;;;;;1.00;0.68;;;27.10;52.50;;;;;;4973241;28;96392;-58
2022/01/01 07:27:20;;;;;;;1.23;0.77;;;27.00;52.40;;;;;;4996135;28;95744;-59
2022/01/01 07:29:53;;;;;;;1.35;0.90;;;27.00;52.40;;;;;;4994935;28;95796;-60
2022/01/01 07:32:24;;;;;;;2.50;1.02;;;27.00;52.30;;;;;;4997905;28;98124;-60
2022/01/01 07:34:55;;;;;;;3.25;1.00;;;27.00;51.60;;;;;;5000951;28;95951;-57
2022/01/01 07:37:26;;;;;;;1.85;1.00;;;26.60;48.40;;;;;;5005653;28;95680;-59
2022/01/01 07:39:57;;;;;;;2.13;0.90;;;26.40;47.50;;;;;;5001216;28;95814;-58
2022/01/01 07:42:28;;;;;;;0.88;0.88;;;26.30;47.90;;;;;;5003902;28;96471;-61
2022/01/01 07:44:59;;;;;;;3.53;1.00;;;26.40;48.30;;;;;;4996970;28;96582;-60
2022/01/01 07:47:29;;;;;;;1.13;1.02;;;26.50;48.40;;;;;;4977630;28;95807;-57
2022/01/01 07:50:00;;;;;;;0.87;0.80;;;26.50;48.40;;;;;;4994189;28;95743;-59
2022/01/01 07:52:31;;;;;;;1.80;0.93;;;26.50;48.30;;;;;;4993281;28;96147;-60
2022/01/01 07:55:01;;;;;;;1.67;0.93;;;26.60;48.40;;;;;;4997383;28;95926;-58
2022/01/01 07:57:32;;;;;;;0.90;0.77;;;26.60;48.40;;;;;;4987458;28;95845;-59
2022/01/01 08:00:07;;;;;;;1.15;0.80;;;26.60;48.40;;;;;;4996106;28;96401;-56
2022/01/01 08:02:44;;;;;;;1.75;0.80;;;26.60;48.50;;;;;;5006949;28;96377;-60
2022/01/01 08:05:17;;;;;;;0.73;0.73;;;26.60;48.60;;;;;;5001759;28;96524;-60
2022/01/01 08:07:50;;;;;;;3.95;0.98;;;26.60;48.60;;;;;;4995660;28;95537;-59
2022/01/01 08:10:34;;;;;;;2.40;1.00;;;26.60;48.70;;;;;;5002725;28;95826;-60
2022/01/01 08:13:09;;;;;;;1.15;0.80;;;26.60;48.80;;;;;;5000859;28;96170;-60
2022/01/01 08:15:40;;;;;;;1.40;0.73;;;26.60;48.80;;;;;;4987412;28;95523;-59
2022/01/01 08:18:10;;;;;;;2.63;1.10;;;26.60;48.90;;;;;;4992037;28;95357;-59
2022/01/01 08:20:41;;;;;;;1.33;1.00;;;26.60;49.00;;;;;;4990909;28;95680;-60
2022/01/01 08:23:14;;;;;;;1.42;1.08;;;26.60;49.00;;;;;;4988245;28;97194;-60
2022/01/01 08:25:44;;;;;;;0.88;0.80;;;26.60;49.10;;;;;;4993801;28;95507;-58
2022/01/01 08:28:16;;;;;;;3.97;1.40;;;26.60;49.10;;;;;;4985188;28;95214;-57
2022/01/01 08:30:46;;;;;;;9.68;1.80;;;26.40;46.80;;;;;;4988727;28;95403;-59
2022/01/01 08:33:16;;;;;;;6.60;2.13;;;26.30;46.80;;;;;;4999618;28;97422;-62
2022/01/01 08:35:46;;;;;;;5.47;1.00;;;26.20;47.80;;;;;;4994695;28;96685;-62
2022/01/01 08:38:18;;;;;;;2.97;1.30;;;26.20;46.30;;;;;;4995528;28;95803;-62
2022/01/01 08:40:49;;;;;;;7.97;1.60;;;26.10;47.10;;;;;;5004338;28;95490;-62
2022/01/01 08:43:20;;;;;;;6.82;1.90;;;26.10;47.10;;;;;;5002343;28;96196;-62
2022/01/01 08:45:53;;;;;;;4.57;1.27;;;26.10;46.90;;;;;;4997797;28;95871;-60
2022/01/01 08:48:23;;;;;;;5.50;1.58;;;26.10;46.80;;;;;;5004400;28;96029;-57
2022/01/01 08:50:53;;;;;;;4.30;1.20;;;26.00;47.00;;;;;;4987686;28;95820;-59
2022/01/01 08:53:25;;;;;;;5.60;1.70;;;26.00;45.10;;;;;;5002677;28;96225;-61
2022/01/01 08:55:55;;;;;;;2.67;1.20;;;26.00;46.90;;;;;;5010052;28;95951;-59
2022/01/01 08:58:26;;;;;;;5.83;1.90;;;25.90;47.20;;;;;;5008063;28;96856;-56
2022/01/01 09:00:57;;;;;;;12.50;2.20;;;25.90;47.30;;;;;;5000594;28;96253;-54
2022/01/01 09:03:28;;;;;;;5.57;1.45;;;25.90;47.30;;;;;;5007144;28;96187;-61
2022/01/01 09:06:00;;;;;;;2.55;1.15;;;25.80;47.20;;;;;;5006425;28;96483;-57
2022/01/01 09:08:39;;;;;;;22.73;3.45;;;25.80;48.00;;;;;;5004741;28;95908;-61
2022/01/01 09:11:14;;;;;;;8.27;1.92;;;25.80;48.00;;;;;;5001594;28;95441;-59
2022/01/01 09:13:46;;;;;;;7.40;1.65;;;25.80;45.50;;;;;;5005676;28;97013;-60
2022/01/01 09:16:19;;;;;;;9.60;2.55;;;25.80;45.60;;;;;;4978395;28;96258;-60
2022/01/01 09:18:50;;;;;;;6.07;1.50;;;25.70;47.70;;;;;;4971696;28;95796;-57
2022/01/01 09:21:22;;;;;;;2.65;1.83;;;25.70;47.80;;;;;;5002978;28;95760;-61
2022/01/01 09:23:54;;;;;;;4.00;1.67;;;25.70;47.70;;;;;;4979855;28;96324;-60
2022/01/01 09:26:26;;;;;;;3.95;2.33;;;25.60;47.70;;;;;;4991079;28;97407;-61
2022/01/01 09:28:57;;;;;;;7.90;1.65;;;25.60;48.00;;;;;;4997586;28;95649;-60
2022/01/01 09:31:29;;;;;;;4.55;1.02;;;25.50;47.90;;;;;;4992066;28;95914;-57
2022/01/01 09:34:03;;;;;;;10.32;2.08;;;25.50;48.30;;;;;;4999508;28;96096;-59
2022/01/01 09:36:40;;;;;;;3.95;1.92;;;25.50;48.70;;;;;;5005437;28;95973;-61
2022/01/01 09:39:11;;;;;;;5.85;1.50;;;25.40;49.00;;;;;;5007564;28;97408;-57
2022/01/01 09:41:42;;;;;;;19.55;2.58;;;25.40;49.60;;;;;;5004035;28;95399;-60
2022/01/01 09:44:18;;;;;;;16.92;1.95;;;25.30;49.50;;;;;;5005444;28;96700;-61
2022/01/01 09:46:50;;;;;;;9.43;1.77;;;25.30;50.30;;;;;;4980417;28;97558;-60
2022/01/01 09:49:21;;;;;;;5.55;1.30;;;25.30;50.30;;;;;;5006320;28;95349;-60
2022/01/01 09:51:53;;;;;;;3.10;1.30;;;25.30;50.10;;;;;;5006685;28;95540;-59
2022/01/01 09:54:24;;;;;;;6.40;1.75;;;25.20;50.10;;;;;;5008632;28;96361;-60
2022/01/01 09:56:55;;;;;;;8.38;1.60;;;25.10;50.70;;;;;;5006799;28;96384;-61
2022/01/01 09:59:26;;;;;;;2.93;1.30;;;25.10;51.20;;;;;;5004826;28;95874;-59
2022/01/01 10:01:57;;;;;;;6.53;1.50;;;25.00;51.20;;;;;;4975629;28;96615;-59
2022/01/01 10:04:45;;;;;;;5.25;1.55;;;25.00;51.10;;;;;;4982784;28;96672;-62
2022/01/01 10:07:16;;;;;;;8.48;1.70;;;25.00;51.10;;;;;;5004878;28;95890;-61
2022/01/01 10:09:47;;;;;;;6.70;1.70;;;25.00;51.10;;;;;;5007562;28;95919;-62
2022/01/01 10:12:18;;;;;;;;;;;25.00;51.10;;;;;;4986004;28;95930;-58
2022/01/01 10:14:49;;;;;;;7.53;1.90;;;25.00;50.90;;;;;;5005412;28;96010;-60
2022/01/01 10:17:23;;;;;;;5.45;1.80;;;25.00;50.90;;;;;;4971558;28;95729;-63
2022/01/01 10:19:54;;;;;;;5.03;1.83;;;25.00;50.90;;;;;;4993250;28;96251;-58
2022/01/01 10:22:26;;;;;;;8.85;1.92;;;24.90;51.10;;;;;;5015879;28;95955;-63
2022/01/01 10:28:00;;;;;;;;;;;24.90;51.70;;;;;;5011843;28;96030;-57
2022/01/01 10:30:43;;;;;;;3.28;1.17;;;24.90;51.70;;;;;;4979608;28;96879;-61
2022/01/01 10:33:20;;;;;;;4.10;1.98;;;24.90;51.80;;;;;;4984358;28;95737;-62
2022/01/01 10:35:56;;;;;;;4.65;2.17;;;24.90;52.00;;;;;;4984410;28;96052;-57
2022/01/01 10:38:29;;;;;;;7.18;2.28;;;24.80;51.80;;;;;;4984176;28;95871;-57
2022/01/01 10:41:10;;;;;;;5.95;1.98;;;24.80;52.10;;;;;;4987252;28;95721;-58
2022/01/01 10:43:46;;;;;;;3.25;1.42;;;24.90;52.60;;;;;;4985437;28;95693;-56
2022/01/01 10:46:19;;;;;;;4.72;1.38;;;24.90;52.90;;;;;;4976218;28;98735;-56
2022/01/01 10:51:21;;;;;;;4.60;1.88;;;24.80;53.00;;;;;;4984137;28;95858;-62
2022/01/01 10:54:05;;;;;;;5.38;1.80;;;24.90;53.00;;;;;;5012031;28;95644;-57
2022/01/01 10:56:38;;;;;;;5.90;1.88;;;24.90;53.10;;;;;;4983466;28;96224;-56
2022/01/01 10:59:11;;;;;;;8.88;1.85;;;24.90;53.30;;;;;;4983445;28;95648;-60
2022/01/01 11:01:44;;;;;;;6.40;1.60;;;24.90;53.60;;;;;;5006083;28;95696;-61
2022/01/01 11:04:16;;;;;;;6.75;1.85;;;24.90;53.60;;;;;;4987946;28;96034;-56
2022/01/01 11:06:51;;;;;;;4.70;1.70;;;24.90;53.30;;;;;;4983544;28;96207;-62
2022/01/01 11:09:23;;;;;;;3.70;1.45;;;24.80;53.00;;;;;;4984275;28;96004;-58
2022/01/01 11:12:02;;;;;;;5.18;1.52;;;24.80;53.00;;;;;;4984486;28;95581;-59
2022/01/01 11:14:34;;;;;;;4.90;1.77;;;24.80;52.90;;;;;;4982758;28;95517;-60
2022/01/01 11:17:05;;;;;;;3.65;1.70;;;24.70;53.00;;;;;;4970775;28;98550;-59
2022/01/01 11:19:36;;;;;;;4.95;1.40;;;24.70;52.70;;;;;;4975751;28;95897;-59
2022/01/01 11:22:09;;;;;;;;;;;24.70;52.70;;;;;;4979938;28;95771;-61
2022/01/01 11:24:43;;;;;;;5.82;1.92;;;24.70;52.50;;;;;;4988184;28;95899;-60
2022/01/01 11:27:15;;;;;;;5.40;1.40;;;24.60;52.40;;;;;;4982246;28;97025;-62
2022/01/01 11:29:50;;;;;;;8.18;1.50;;;24.50;52.40;;;;;;4998328;28;96115;-58
2022/01/01 11:32:49;;;;;;;8.90;1.90;;;24.30;52.90;;;;;;4975580;28;96052;-59
2022/01/01 11:35:28;;;;;;;11.13;2.00;;;24.30;53.30;;;;;;4970895;28;96027;-60
2022/01/01 11:38:04;;;;;;;7.45;2.10;;;24.30;53.60;;;;;;4972261;28;96100;-58
2022/01/01 11:40:41;;;;;;;8.77;2.08;;;24.40;53.80;;;;;;4968001;28;95593;-62
2022/01/01 11:43:31;;;;;;;6.80;2.20;;;24.30;54.10;;;;;;4973575;28;95625;-61
2022/01/01 11:46:26;;;;;;;3.33;1.65;;;24.20;54.30;;;;;;4969691;28;99338;-60
2022/01/01 11:48:56;;;;;;;6.45;1.58;;;24.20;54.80;;;;;;4982169;28;98589;-56
2022/01/01 11:51:52;;;;;;;2.65;1.25;;;24.20;55.20;;;;;;4976392;28;95675;-62
2022/01/01 11:54:25;;;;;;;6.63;1.60;;;24.10;55.30;;;;;;4968422;28;95342;-62
2022/01/01 11:56:58;;;;;;;10.40;1.75;;;24.10;55.30;;;;;;4968246;28;96126;-61
2022/01/01 11:59:38;;;;;;;6.30;1.40;;;23.90;55.40;;;;;;4976052;28;96085;-62
2022/01/01 12:02:18;;;;;;;9.48;2.45;;;23.90;55.30;;;;;;4966291;28;96496;-60
2022/01/01 12:04:51;;;;;;;4.72;1.63;;;23.80;55.70;;;;;;4969936;28;95657;-63
2022/01/01 12:07:24;;;;;;;3.70;1.55;;;23.70;55.30;;;;;;4997494;28;95753;-62
2022/01/01 12:10:09;;;;;;;3.70;1.40;;;23.70;55.60;;;;;;4977020;28;96591;-62
2022/01/01 12:12:41;;;;;;;3.20;1.67;;;23.60;55.30;;;;;;4987305;28;97041;-61
2022/01/01 12:15:41;;;;;;;7.03;1.50;;;23.60;55.50;;;;;;4968853;28;95911;-62
2022/01/01 12:18:22;;;;;;;6.27;2.07;;;23.60;56.00;;;;;;4958454;28;96047;-62
2022/01/01 12:21:03;;;;;;;33.30;4.22;;;23.50;56.00;;;;;;4979412;28;95927;-58
2022/01/01 12:23:37;;;;;;;;;;;23.50;56.50;;;;;;4973771;28;95852;-60
2022/01/01 12:26:10;;;;;;;16.92;3.78;;;23.50;56.50;;;;;;4972542;28;95796;-63
2022/01/01 12:28:46;;;;;;;15.93;2.65;;;23.50;56.60;;;;;;4976897;28;95613;-60
2022/01/01 12:31:23;;;;;;;10.70;2.58;;;23.40;57.00;;;;;;4965442;28;96077;-59
2022/01/01 12:34:00;;;;;;;10.80;2.47;;;23.40;57.30;;;;;;4977247;28;95819;-59
2022/01/01 12:36:41;;;;;;;8.05;1.90;;;23.40;57.50;;;;;;4980485;28;95752;-58
2022/01/01 12:39:13;;;;;;;6.78;1.60;;;23.40;57.40;;;;;;4979465;28;95479;-59
2022/01/01 12:41:44;;;;;;;10.00;2.10;;;23.40;57.50;;;;;;4969186;28;97016;-59
2022/01/01 12:44:23;;;;;;;6.18;2.42;;;23.30;57.60;;;;;;4974621;28;95637;-64
2022/01/01 12:47:01;;;;;;;9.68;1.90;;;23.30;58.00;;;;;;4965212;28;95809;-61
2022/01/01 12:51:16;;;;;;;7.18;1.67;;;23.30;57.60;;;;;;4993097;27;100016;-56
2022/01/01 12:54:01;;;;;;;8.02;2.38;;;23.30;58.10;;;;;;4998589;28;97448;-62
2022/01/01 12:56:33;;;;;;;5.22;1.70;;;23.20;58.40;;;;;;4993123;28;95838;-65
2022/01/01 12:59:09;;;;;;;8.90;1.92;;;23.20;58.20;;;;;;4991794;28;96624;-61
2022/01/01 13:01:44;;;;;;;9.35;2.58;;;23.20;58.70;;;;;;4971054;27;95654;-70
2022/01/01 13:04:18;;;;;;;12.18;2.00;;;23.20;58.90;;;;;;4963403;28;95732;-66
2022/01/01 13:06:54;;;;;;;29.20;2.40;;;23.10;58.90;;;;;;4967859;28;95864;-70
2022/01/01 13:09:30;;;;;;;44.30;4.43;;;23.10;58.70;;;;;;4971990;28;97114;-74
2022/01/01 13:12:08;;;;;;;13.63;2.67;;;23.00;58.80;;;;;;4958150;28;96244;-74
2022/01/01 13:14:38;;;;;;;6.22;1.88;;;23.00;59.10;;;;;;4970908;28;95824;-75
2022/01/01 13:17:09;;;;;;;8.45;1.70;;;23.00;59.10;;;;;;4965603;28;95928;-70
2022/01/01 13:19:40;;;;;;;2.72;1.48;;;22.90;58.90;;;;;;4975235;28;96197;-75
2022/01/01 13:22:10;;;;;;;6.67;1.60;;;22.90;59.10;;;;;;4971454;28;96397;-74
2022/01/01 13:24:40;;;;;;;5.45;1.65;;;22.80;58.80;;;;;;4970641;28;96462;-75
2022/01/01 13:27:12;;;;;;;7.90;1.50;;;22.70;59.40;;;;;;4972715;28;97570;-75
2022/01/01 13:29:43;;;;;;;6.30;1.50;;;22.50;59.70;;;;;;4970172;28;95384;-71
2022/01/01 13:32:13;;;;;;;7.65;1.65;;;22.50;60.40;;;;;;4960051;28;95921;-71
2022/01/01 13:34:54;;;;;;;10.05;1.73;;;22.50;60.80;;;;;;4984270;28;98093;-67